Terminal Aerodrome Forecast
Issued by NWS

Home | Current Version | Previous Version | Graphics & Text | Print | Product List | Glossary On
Versions: 1 2 3 4 5 6 7 8 9 10 11 12 13 14 15 16 17 18 19 20 21 22 23 24 25 26
088
FTUS43 KABR 210521
TAFMBG
TAF
KMBG 210521Z 2106/2206 12003KT 1SM BR OVC002
     FM211600 VRB03KT 3SM BR OVC003
     FM211900 30005KT 5SM BR OVC008
     FM212100 30007KT P6SM OVC010
     FM220100 32005KT P6SM BKN008=

USA.gov is the U.S. government's official web portal to all federal, state and local government web resources and services.